sensor_id;sensor_type;location;lat;lon;timestamp;pressure;altitude;pressure_sealevel;temperature;humidity
56894;BME280;43392;50.078;13.704;2023-05-02T00:00:39;96808.66;;;11.87;74.75
56894;BME280;43392;50.078;13.704;2023-05-02T00:03:06;96808.19;;;11.80;75.32
56894;BME280;43392;50.078;13.704;2023-05-02T00:05:34;96815.81;;;11.73;75.59
56894;BME280;43392;50.078;13.704;2023-05-02T00:08:01;96817.19;;;11.65;76.15
56894;BME280;43392;50.078;13.704;2023-05-02T00:10:27;96814.56;;;11.60;76.47
56894;BME280;43392;50.078;13.704;2023-05-02T00:12:54;96825.91;;;11.57;76.75
56894;BME280;43392;50.078;13.704;2023-05-02T00:15:21;96817.31;;;11.55;76.98
56894;BME280;43392;50.078;13.704;2023-05-02T00:17:47;96818.69;;;11.53;76.94
56894;BME280;43392;50.078;13.704;2023-05-02T00:20:14;96816.28;;;11.51;77.08
56894;BME280;43392;50.078;13.704;2023-05-02T00:22:42;96818.44;;;11.49;77.36
56894;BME280;43392;50.078;13.704;2023-05-02T00:25:09;96818.75;;;11.48;77.54
56894;BME280;43392;50.078;13.704;2023-05-02T00:27:40;96820.13;;;11.45;77.67
56894;BME280;43392;50.078;13.704;2023-05-02T00:30:08;96808.31;;;11.41;77.67
56894;BME280;43392;50.078;13.704;2023-05-02T00:32:34;96809.94;;;11.42;78.00
56894;BME280;43392;50.078;13.704;2023-05-02T00:35:01;96817.97;;;11.42;77.91
56894;BME280;43392;50.078;13.704;2023-05-02T00:37:28;96813.41;;;11.43;77.93
56894;BME280;43392;50.078;13.704;2023-05-02T00:39:56;96808.84;;;11.43;77.89
56894;BME280;43392;50.078;13.704;2023-05-02T00:42:22;96807.25;;;11.42;78.16
56894;BME280;43392;50.078;13.704;2023-05-02T00:44:49;96812.66;;;11.37;78.49
56894;BME280;43392;50.078;13.704;2023-05-02T00:47:15;96806.53;;;11.31;79.17
56894;BME280;43392;50.078;13.704;2023-05-02T00:49:42;96818.94;;;11.27;79.59
56894;BME280;43392;50.078;13.704;2023-05-02T00:52:08;96817.63;;;11.25;79.34
56894;BME280;43392;50.078;13.704;2023-05-02T00:54:36;96813.91;;;11.21;79.83
56894;BME280;43392;50.078;13.704;2023-05-02T00:57:04;96821.69;;;11.17;79.97
56894;BME280;43392;50.078;13.704;2023-05-02T00:59:31;96831.94;;;11.15;79.86
56894;BME280;43392;50.078;13.704;2023-05-02T01:02:07;96834.91;;;11.14;80.07
56894;BME280;43392;50.078;13.704;2023-05-02T01:04:41;96820.44;;;11.10;80.04
56894;BME280;43392;50.078;13.704;2023-05-02T01:07:21;96826.38;;;11.07;80.32
56894;BME280;43392;50.078;13.704;2023-05-02T01:10:00;96833.66;;;11.01;79.78
56894;BME280;43392;50.078;13.704;2023-05-02T01:12:38;96836.06;;;11.03;79.57
56894;BME280;43392;50.078;13.704;2023-05-02T01:15:09;96837.38;;;11.05;79.42
56894;BME280;43392;50.078;13.704;2023-05-02T01:17:37;96837.09;;;11.07;79.23
56894;BME280;43392;50.078;13.704;2023-05-02T01:20:09;96829.09;;;11.02;78.98
56894;BME280;43392;50.078;13.704;2023-05-02T01:22:37;96840.06;;;11.05;79.17
56894;BME280;43392;50.078;13.704;2023-05-02T01:25:14;96838.47;;;11.04;79.11
56894;BME280;43392;50.078;13.704;2023-05-02T01:27:56;96852.41;;;11.06;78.91
56894;BME280;43392;50.078;13.704;2023-05-02T01:30:26;96847.56;;;11.08;78.78
56894;BME280;43392;50.078;13.704;2023-05-02T01:32:56;96851.03;;;11.09;78.86
56894;BME280;43392;50.078;13.704;2023-05-02T01:35:25;96852.13;;;11.08;78.78
56894;BME280;43392;50.078;13.704;2023-05-02T01:37:53;96855.81;;;11.12;78.76
56894;BME280;43392;50.078;13.704;2023-05-02T01:40:22;96854.25;;;11.11;78.89
56894;BME280;43392;50.078;13.704;2023-05-02T01:42:52;96865.50;;;11.13;78.58
56894;BME280;43392;50.078;13.704;2023-05-02T01:45:20;96857.94;;;11.15;78.58
56894;BME280;43392;50.078;13.704;2023-05-02T01:47:48;96873.00;;;11.16;78.55
56894;BME280;43392;50.078;13.704;2023-05-02T01:50:18;96866.81;;;11.15;78.47
56894;BME280;43392;50.078;13.704;2023-05-02T01:52:46;96860.38;;;11.16;78.39
56894;BME280;43392;50.078;13.704;2023-05-02T01:55:14;96866.81;;;11.15;78.85
56894;BME280;43392;50.078;13.704;2023-05-02T01:57:43;96867.88;;;11.14;78.49
56894;BME280;43392;50.078;13.704;2023-05-02T02:00:12;96867.63;;;11.16;78.15
56894;BME280;43392;50.078;13.704;2023-05-02T02:02:40;96866.00;;;11.15;78.58
56894;BME280;43392;50.078;13.704;2023-05-02T02:05:09;96874.88;;;11.15;78.50
56894;BME280;43392;50.078;13.704;2023-05-02T02:07:38;96873.78;;;11.16;78.80
56894;BME280;43392;50.078;13.704;2023-05-02T02:10:06;96873.25;;;11.14;78.81
56894;BME280;43392;50.078;13.704;2023-05-02T02:12:37;96877.03;;;11.13;78.93
56894;BME280;43392;50.078;13.704;2023-05-02T02:15:08;96868.16;;;11.13;79.25
56894;BME280;43392;50.078;13.704;2023-05-02T02:17:41;96875.41;;;11.12;79.23
56894;BME280;43392;50.078;13.704;2023-05-02T02:20:11;96871.94;;;11.12;79.19
56894;BME280;43392;50.078;13.704;2023-05-02T02:22:40;96871.94;;;11.12;79.06
56894;BME280;43392;50.078;13.704;2023-05-02T02:25:11;96880.53;;;11.14;79.08
56894;BME280;43392;50.078;13.704;2023-05-02T02:27:39;96890.44;;;11.13;79.14
56894;BME280;43392;50.078;13.704;2023-05-02T02:30:07;96880.53;;;11.14;79.13
56894;BME280;43392;50.078;13.704;2023-05-02T02:32:34;96889.34;;;11.14;79.04
56894;BME280;43392;50.078;13.704;2023-05-02T02:35:01;96882.41;;;11.13;78.93
56894;BME280;43392;50.078;13.704;2023-05-02T02:37:32;96884.78;;;11.15;78.95
56894;BME280;43392;50.078;13.704;2023-05-02T02:40:04;96885.59;;;11.15;79.03
56894;BME280;43392;50.078;13.704;2023-05-02T02:42:38;96874.88;;;11.15;78.81
56894;BME280;43392;50.078;13.704;2023-05-02T02:45:17;96889.59;;;11.18;78.96
56894;BME280;43392;50.078;13.704;2023-05-02T02:47:50;96896.53;;;11.24;78.92
56894;BME280;43392;50.078;13.704;2023-05-02T02:50:23;96895.41;;;11.30;78.63
56894;BME280;43392;50.078;13.704;2023-05-02T02:52:59;96886.56;;;11.29;78.44
56894;BME280;43392;50.078;13.704;2023-05-02T02:55:35;96891.06;;;11.34;78.16
56894;BME280;43392;50.078;13.704;2023-05-02T02:58:14;96897.50;;;11.38;78.42
56894;BME280;43392;50.078;13.704;2023-05-02T03:00:41;96900.97;;;11.39;78.23
56894;BME280;43392;50.078;13.704;2023-05-02T03:03:10;96897.72;;;11.42;78.03
56894;BME280;43392;50.078;13.704;2023-05-02T03:05:37;96898.81;;;11.41;77.96
56894;BME280;43392;50.078;13.704;2023-05-02T03:08:05;96894.22;;;11.41;77.99
56894;BME280;43392;50.078;13.704;2023-05-02T03:10:32;96898.53;;;11.42;77.96
56894;BME280;43392;50.078;13.704;2023-05-02T03:12:59;96914.63;;;11.42;77.92
56894;BME280;43392;50.078;13.704;2023-05-02T03:18:29;96913.03;;;11.41;78.03
56894;BME280;43392;50.078;13.704;2023-05-02T03:20:57;96914.34;;;11.44;77.97
56894;BME280;43392;50.078;13.704;2023-05-02T03:23:26;96913.28;;;11.45;77.96
56894;BME280;43392;50.078;13.704;2023-05-02T03:25:53;96915.13;;;11.49;77.97
56894;BME280;43392;50.078;13.704;2023-05-02T03:28:19;96919.94;;;11.52;77.85
56894;BME280;43392;50.078;13.704;2023-05-02T03:30:46;96923.41;;;11.53;77.50
56894;BME280;43392;50.078;13.704;2023-05-02T03:33:12;96926.38;;;11.51;77.63
56894;BME280;43392;50.078;13.704;2023-05-02T03:35:39;96923.16;;;11.49;77.59
56894;BME280;43392;50.078;13.704;2023-05-02T03:38:06;96927.47;;;11.50;77.53
56894;BME280;43392;50.078;13.704;2023-05-02T03:40:34;96943.59;;;11.50;77.61
56894;BME280;43392;50.078;13.704;2023-05-02T03:43:01;96935.78;;;11.49;77.59
56894;BME280;43392;50.078;13.704;2023-05-02T03:45:27;96933.41;;;11.47;77.50
56894;BME280;43392;50.078;13.704;2023-05-02T03:47:54;96937.44;;;11.45;77.54
56894;BME280;43392;50.078;13.704;2023-05-02T03:50:21;96938.50;;;11.44;77.87
56894;BME280;43392;50.078;13.704;2023-05-02T03:52:48;96944.19;;;11.42;77.90
56894;BME280;43392;50.078;13.704;2023-05-02T03:55:14;96959.47;;;11.42;78.34
56894;BME280;43392;50.078;13.704;2023-05-02T03:57:42;96950.63;;;11.41;78.40
56894;BME280;43392;50.078;13.704;2023-05-02T04:00:10;96956.56;;;11.38;78.59
56894;BME280;43392;50.078;13.704;2023-05-02T04:02:37;96950.72;;;11.31;78.46
56894;BME280;43392;50.078;13.704;2023-05-02T04:05:04;96976.44;;;11.37;78.61
56894;BME280;43392;50.078;13.704;2023-05-02T04:07:32;96973.78;;;11.32;78.80
56894;BME280;43392;50.078;13.704;2023-05-02T04:09:59;96974.06;;;11.30;78.93
56894;BME280;43392;50.078;13.704;2023-05-02T04:12:25;96986.16;;;11.28;79.17
56894;BME280;43392;50.078;13.704;2023-05-02T04:14:53;96981.06;;;11.26;79.29
56894;BME280;43392;50.078;13.704;2023-05-02T04:17:20;96986.72;;;11.25;79.47
56894;BME280;43392;50.078;13.704;2023-05-02T04:19:47;96989.13;;;11.21;79.60
56894;BME280;43392;50.078;13.704;2023-05-02T04:22:13;96992.91;;;11.20;79.84
56894;BME280;43392;50.078;13.704;2023-05-02T04:24:40;97002.03;;;11.19;80.01
56894;BME280;43392;50.078;13.704;2023-05-02T04:27:06;96994.28;;;11.18;80.24
56894;BME280;43392;50.078;13.704;2023-05-02T04:29:33;97001.53;;;11.17;80.26
56894;BME280;43392;50.078;13.704;2023-05-02T04:32:01;96994.28;;;11.18;80.37
56894;BME280;43392;50.078;13.704;2023-05-02T04:34:28;97000.16;;;11.20;80.40
56894;BME280;43392;50.078;13.704;2023-05-02T04:36:54;97008.22;;;11.20;80.41
56894;BME280;43392;50.078;13.704;2023-05-02T04:39:21;97007.41;;;11.19;80.56
56894;BME280;43392;50.078;13.704;2023-05-02T04:41:48;97014.69;;;11.19;80.63
56894;BME280;43392;50.078;13.704;2023-05-02T04:44:14;97015.47;;;11.19;80.84
56894;BME280;43392;50.078;13.704;2023-05-02T04:46:41;97014.41;;;11.20;80.48
56894;BME280;43392;50.078;13.704;2023-05-02T04:49:09;97014.91;;;11.22;80.30
56894;BME280;43392;50.078;13.704;2023-05-02T04:51:35;97019.22;;;11.23;80.02
56894;BME280;43392;50.078;13.704;2023-05-02T04:54:02;97009.25;;;11.24;80.00
56894;BME280;43392;50.078;13.704;2023-05-02T04:56:29;97019.72;;;11.30;79.58
56894;BME280;43392;50.078;13.704;2023-05-02T04:58:55;97031.47;;;11.34;79.12
56894;BME280;43392;50.078;13.704;2023-05-02T05:01:23;97032.53;;;11.39;78.42
56894;BME280;43392;50.078;13.704;2023-05-02T05:03:52;97036.34;;;11.32;78.42
56894;BME280;43392;50.078;13.704;2023-05-02T05:06:20;97045.19;;;11.33;78.83
56894;BME280;43392;50.078;13.704;2023-05-02T05:08:47;97048.91;;;11.37;78.52
56894;BME280;43392;50.078;13.704;2023-05-02T05:11:13;97051.06;;;11.40;78.65
56894;BME280;43392;50.078;13.704;2023-05-02T05:13:40;97047.25;;;11.46;78.63
56894;BME280;43392;50.078;13.704;2023-05-02T05:16:07;97048.28;;;11.55;78.28
56894;BME280;43392;50.078;13.704;2023-05-02T05:18:34;97060.03;;;11.64;77.98
56894;BME280;43392;50.078;13.704;2023-05-02T05:21:04;97052.72;;;11.75;77.28
56894;BME280;43392;50.078;13.704;2023-05-02T05:23:32;97055.63;;;11.83;77.07
56894;BME280;43392;50.078;13.704;2023-05-02T05:26:07;97053.94;;;11.92;76.63
56894;BME280;43392;50.078;13.704;2023-05-02T05:28:34;97058.72;;;12.01;76.38
56894;BME280;43392;50.078;13.704;2023-05-02T05:31:04;97062.94;;;12.07;76.15
56894;BME280;43392;50.078;13.704;2023-05-02T05:33:31;97063.97;;;12.16;75.63
56894;BME280;43392;50.078;13.704;2023-05-02T05:36:02;97071.34;;;12.29;75.14
56894;BME280;43392;50.078;13.704;2023-05-02T05:38:29;97070.88;;;12.50;74.05
56894;BME280;43392;50.078;13.704;2023-05-02T05:40:57;97070.56;;;12.57;72.72
56894;BME280;43392;50.078;13.704;2023-05-02T05:43:24;97069.44;;;12.58;71.94
56894;BME280;43392;50.078;13.704;2023-05-02T05:45:51;97075.78;;;12.67;71.97
56894;BME280;43392;50.078;13.704;2023-05-02T05:48:17;97078.28;;;12.63;70.29
56894;BME280;43392;50.078;13.704;2023-05-02T05:50:44;97072.09;;;12.63;70.62
56894;BME280;43392;50.078;13.704;2023-05-02T05:53:11;97078.03;;;12.84;69.95
56894;BME280;43392;50.078;13.704;2023-05-02T05:55:37;97080.59;;;12.94;70.01
56894;BME280;43392;50.078;13.704;2023-05-02T05:58:05;97090.16;;;13.10;69.88
56894;BME280;43392;50.078;13.704;2023-05-02T06:00:33;97089.84;;;13.11;66.80
56894;BME280;43392;50.078;13.704;2023-05-02T06:03:00;97097.06;;;12.92;67.40
56894;BME280;43392;50.078;13.704;2023-05-02T06:05:26;97091.50;;;12.84;67.21
56894;BME280;43392;50.078;13.704;2023-05-02T06:07:53;97100.31;;;12.89;67.82
56894;BME280;43392;50.078;13.704;2023-05-02T06:10:20;97097.56;;;12.94;67.41
56894;BME280;43392;50.078;13.704;2023-05-02T06:12:46;97101.06;;;12.95;66.86
56894;BME280;43392;50.078;13.704;2023-05-02T06:15:14;97108.91;;;12.91;66.51
56894;BME280;43392;50.078;13.704;2023-05-02T06:17:41;97104.31;;;12.92;66.89
56894;BME280;43392;50.078;13.704;2023-05-02T06:20:08;97099.88;;;13.06;66.84
56894;BME280;43392;50.078;13.704;2023-05-02T06:22:35;97106.66;;;12.98;65.81
56894;BME280;43392;50.078;13.704;2023-05-02T06:25:02;97105.00;;;13.07;66.72
56894;BME280;43392;50.078;13.704;2023-05-02T06:27:29;97109.72;;;13.15;66.20
56894;BME280;43392;50.078;13.704;2023-05-02T06:29:56;97119.34;;;13.21;65.01
56894;BME280;43392;50.078;13.704;2023-05-02T06:32:24;97118.72;;;13.29;63.81
56894;BME280;43392;50.078;13.704;2023-05-02T06:34:51;97119.19;;;13.37;64.35
56894;BME280;43392;50.078;13.704;2023-05-02T06:37:17;97129.88;;;13.42;63.81
56894;BME280;43392;50.078;13.704;2023-05-02T06:39:44;97116.25;;;13.33;63.71
56894;BME280;43392;50.078;13.704;2023-05-02T06:42:10;97122.63;;;13.18;63.92
56894;BME280;43392;50.078;13.704;2023-05-02T06:44:37;97130.94;;;13.22;64.05
56894;BME280;43392;50.078;13.704;2023-05-02T06:47:04;97118.94;;;13.33;63.63
56894;BME280;43392;50.078;13.704;2023-05-02T06:49:32;97125.28;;;13.42;63.68
56894;BME280;43392;50.078;13.704;2023-05-02T06:51:59;97131.34;;;13.53;62.71
56894;BME280;43392;50.078;13.704;2023-05-02T06:54:25;97134.03;;;13.53;63.47
56894;BME280;43392;50.078;13.704;2023-05-02T06:56:52;97137.81;;;13.52;63.10
56894;BME280;43392;50.078;13.704;2023-05-02T06:59:19;97140.81;;;13.50;62.07
56894;BME280;43392;50.078;13.704;2023-05-02T07:01:46;97131.91;;;13.50;62.20
56894;BME280;43392;50.078;13.704;2023-05-02T07:04:12;97144.31;;;13.51;62.53
56894;BME280;43392;50.078;13.704;2023-05-02T07:06:40;97150.28;;;13.48;62.71
56894;BME280;43392;50.078;13.704;2023-05-02T07:09:07;97154.91;;;13.42;63.88
56894;BME280;43392;50.078;13.704;2023-05-02T07:11:33;97149.47;;;13.47;63.16
56894;BME280;43392;50.078;13.704;2023-05-02T07:14:00;97152.56;;;13.36;63.64
56894;BME280;43392;50.078;13.704;2023-05-02T07:16:27;97150.94;;;13.58;63.76
56894;BME280;43392;50.078;13.704;2023-05-02T07:18:53;97162.97;;;13.66;62.78
56894;BME280;43392;50.078;13.704;2023-05-02T07:21:20;97162.97;;;13.66;63.03
56894;BME280;43392;50.078;13.704;2023-05-02T07:23:48;97170.81;;;13.62;63.33
56894;BME280;43392;50.078;13.704;2023-05-02T07:26:14;97160.22;;;13.71;62.93
56894;BME280;43392;50.078;13.704;2023-05-02T07:28:43;97161.00;;;13.71;63.03
56894;BME280;43392;50.078;13.704;2023-05-02T07:31:09;97168.50;;;13.74;62.96
56894;BME280;43392;50.078;13.704;2023-05-02T07:33:36;97160.00;;;13.86;62.02
56894;BME280;43392;50.078;13.704;2023-05-02T07:36:03;97178.34;;;14.03;62.57
56894;BME280;43392;50.078;13.704;2023-05-02T07:38:29;97170.91;;;14.13;62.36
56894;BME280;43392;50.078;13.704;2023-05-02T07:40:58;97171.44;;;14.15;61.35
56894;BME280;43392;50.078;13.704;2023-05-02T07:43:25;97171.06;;;14.03;62.08
56894;BME280;43392;50.078;13.704;2023-05-02T07:45:52;97174.78;;;14.26;61.48
56894;BME280;43392;50.078;13.704;2023-05-02T07:48:19;97176.75;;;14.39;60.70
56894;BME280;43392;50.078;13.704;2023-05-02T07:50:45;97178.88;;;14.42;60.74
56894;BME280;43392;50.078;13.704;2023-05-02T07:53:12;97187.16;;;14.27;60.68
56894;BME280;43392;50.078;13.704;2023-05-02T07:55:38;97192.34;;;14.42;61.01
56894;BME280;43392;50.078;13.704;2023-05-02T07:58:06;97199.38;;;14.43;61.54
56894;BME280;43392;50.078;13.704;2023-05-02T08:00:33;97189.03;;;14.63;61.06
56894;BME280;43392;50.078;13.704;2023-05-02T08:02:59;97195.06;;;14.74;60.75
56894;BME280;43392;50.078;13.704;2023-05-02T08:05:26;97206.28;;;14.81;59.98
56894;BME280;43392;50.078;13.704;2023-05-02T08:07:53;97200.50;;;14.88;60.76
56894;BME280;43392;50.078;13.704;2023-05-02T08:10:19;97213.59;;;14.81;60.40
56894;BME280;43392;50.078;13.704;2023-05-02T08:12:48;97221.84;;;14.71;60.66
56894;BME280;43392;50.078;13.704;2023-05-02T08:15:16;97222.88;;;14.75;61.15
56894;BME280;43392;50.078;13.704;2023-05-02T08:17:43;97222.22;;;14.96;60.40
56894;BME280;43392;50.078;13.704;2023-05-02T08:20:10;97233.84;;;14.97;60.18
56894;BME280;43392;50.078;13.704;2023-05-02T08:22:36;97228.31;;;15.02;60.71
56894;BME280;43392;50.078;13.704;2023-05-02T08:25:03;97229.59;;;15.23;60.00
56894;BME280;43392;50.078;13.704;2023-05-02T08:27:30;97227.56;;;15.28;59.83
56894;BME280;43392;50.078;13.704;2023-05-02T08:29:59;97228.56;;;15.19;59.63
56894;BME280;43392;50.078;13.704;2023-05-02T08:32:27;97218.97;;;15.13;60.31
56894;BME280;43392;50.078;13.704;2023-05-02T08:34:54;97235.00;;;15.23;58.49
56894;BME280;43392;50.078;13.704;2023-05-02T08:37:21;97231.41;;;15.41;59.02
56894;BME280;43392;50.078;13.704;2023-05-02T08:39:48;97227.22;;;15.49;58.13
56894;BME280;43392;50.078;13.704;2023-05-02T08:42:14;97235.94;;;15.59;57.37
56894;BME280;43392;50.078;13.704;2023-05-02T08:44:41;97237.63;;;15.55;57.90
56894;BME280;43392;50.078;13.704;2023-05-02T08:47:09;97244.91;;;15.41;59.14
56894;BME280;43392;50.078;13.704;2023-05-02T08:49:38;97248.00;;;15.35;59.58
56894;BME280;43392;50.078;13.704;2023-05-02T08:52:06;97249.31;;;15.37;59.70
56894;BME280;43392;50.078;13.704;2023-05-02T08:54:36;97256.31;;;15.38;60.00
56894;BME280;43392;50.078;13.704;2023-05-02T08:57:03;97250.03;;;15.43;58.45
56894;BME280;43392;50.078;13.704;2023-05-02T08:59:31;97247.03;;;15.44;59.13
56894;BME280;43392;50.078;13.704;2023-05-02T09:02:00;97260.56;;;15.58;58.43
56894;BME280;43392;50.078;13.704;2023-05-02T09:04:31;97265.69;;;15.59;58.51
56894;BME280;43392;50.078;13.704;2023-05-02T09:07:00;97262.09;;;15.64;58.75
56894;BME280;43392;50.078;13.704;2023-05-02T09:09:27;97258.66;;;15.58;57.75
56894;BME280;43392;50.078;13.704;2023-05-02T09:11:55;97274.91;;;15.72;57.50
56894;BME280;43392;50.078;13.704;2023-05-02T09:14:22;97269.19;;;15.73;57.23
56894;BME280;43392;50.078;13.704;2023-05-02T09:16:49;97277.50;;;15.77;57.97
56894;BME280;43392;50.078;13.704;2023-05-02T09:19:23;97284.69;;;15.68;57.75
56894;BME280;43392;50.078;13.704;2023-05-02T09:21:50;97289.09;;;15.77;57.24
56894;BME280;43392;50.078;13.704;2023-05-02T09:24:19;97284.41;;;15.69;57.15
56894;BME280;43392;50.078;13.704;2023-05-02T09:26:56;97288.84;;;15.33;57.64
56894;BME280;43392;50.078;13.704;2023-05-02T09:29:23;97290.84;;;15.27;57.55
56894;BME280;43392;50.078;13.704;2023-05-02T09:31:50;97288.53;;;15.35;58.80
56894;BME280;43392;50.078;13.704;2023-05-02T09:34:16;97283.22;;;15.16;58.65
56894;BME280;43392;50.078;13.704;2023-05-02T09:36:44;97291.16;;;15.40;56.82
56894;BME280;43392;50.078;13.704;2023-05-02T09:39:12;97301.31;;;15.48;57.34
56894;BME280;43392;50.078;13.704;2023-05-02T09:41:40;97298.53;;;15.66;57.39
56894;BME280;43392;50.078;13.704;2023-05-02T09:44:09;97299.63;;;15.65;56.92
56894;BME280;43392;50.078;13.704;2023-05-02T09:46:39;97307.53;;;15.62;55.57
56894;BME280;43392;50.078;13.704;2023-05-02T09:49:06;97309.53;;;15.56;56.70
56894;BME280;43392;50.078;13.704;2023-05-02T09:51:33;97306.72;;;15.75;55.98
56894;BME280;43392;50.078;13.704;2023-05-02T09:53:59;97309.06;;;15.81;57.20
56894;BME280;43392;50.078;13.704;2023-05-02T09:56:26;97318.28;;;16.08;57.44
56894;BME280;43392;50.078;13.704;2023-05-02T09:59:11;97322.06;;;16.07;55.86
56894;BME280;43392;50.078;13.704;2023-05-02T10:01:39;97322.56;;;15.95;54.89
56894;BME280;43392;50.078;13.704;2023-05-02T10:04:09;97329.28;;;15.84;55.06
56894;BME280;43392;50.078;13.704;2023-05-02T10:06:41;97319.06;;;15.94;54.88
56894;BME280;43392;50.078;13.704;2023-05-02T10:09:09;97326.19;;;15.90;53.70
56894;BME280;43392;50.078;13.704;2023-05-02T10:11:37;97318.25;;;15.80;54.29
56894;BME280;43392;50.078;13.704;2023-05-02T10:14:08;97316.19;;;15.91;53.86
56894;BME280;43392;50.078;13.704;2023-05-02T10:16:36;97324.97;;;15.97;53.91
56894;BME280;43392;50.078;13.704;2023-05-02T10:19:08;97326.97;;;16.05;53.65
56894;BME280;43392;50.078;13.704;2023-05-02T10:21:35;97336.59;;;15.83;53.94
56894;BME280;43392;50.078;13.704;2023-05-02T10:24:02;97331.59;;;16.18;54.41
56894;BME280;43392;50.078;13.704;2023-05-02T10:26:33;97341.31;;;16.05;53.10
56894;BME280;43392;50.078;13.704;2023-05-02T10:29:00;97335.38;;;16.17;53.44
56894;BME280;43392;50.078;13.704;2023-05-02T10:31:32;97336.88;;;16.36;52.42
56894;BME280;43392;50.078;13.704;2023-05-02T10:33:59;97329.00;;;16.13;52.38
56894;BME280;43392;50.078;13.704;2023-05-02T10:36:28;97342.78;;;16.52;52.57
56894;BME280;43392;50.078;13.704;2023-05-02T10:38:56;97329.56;;;16.37;53.12
56894;BME280;43392;50.078;13.704;2023-05-02T10:41:25;97339.16;;;16.70;54.23
56894;BME280;43392;50.078;13.704;2023-05-02T10:43:53;97336.53;;;17.01;53.17
56894;BME280;43392;50.078;13.704;2023-05-02T10:46:31;97333.22;;;17.04;52.47
56894;BME280;43392;50.078;13.704;2023-05-02T10:49:03;97319.19;;;17.02;52.65
56894;BME280;43392;50.078;13.704;2023-05-02T10:51:31;97321.31;;;17.13;51.97
56894;BME280;43392;50.078;13.704;2023-05-02T10:54:20;97329.56;;;17.08;51.35
56894;BME280;43392;50.078;13.704;2023-05-02T10:57:06;97326.44;;;16.93;51.78
56894;BME280;43392;50.078;13.704;2023-05-02T10:59:35;97324.72;;;16.97;52.94
56894;BME280;43392;50.078;13.704;2023-05-02T11:02:03;97336.53;;;17.01;51.26
56894;BME280;43392;50.078;13.704;2023-05-02T11:04:58;97336.09;;;16.85;52.32
56894;BME280;43392;50.078;13.704;2023-05-02T11:07:26;97330.19;;;17.05;51.89
56894;BME280;43392;50.078;13.704;2023-05-02T11:10:23;97334.16;;;16.36;53.16
56894;BME280;43392;50.078;13.704;2023-05-02T11:12:51;97338.28;;;16.34;53.35
56894;BME280;43392;50.078;13.704;2023-05-02T11:18:19;97342.50;;;16.53;54.58
56894;BME280;43392;50.078;13.704;2023-05-02T11:20:45;97339.19;;;16.56;52.96
56894;BME280;43392;50.078;13.704;2023-05-02T11:23:22;97332.56;;;16.49;52.22
56894;BME280;43392;50.078;13.704;2023-05-02T11:25:53;97342.00;;;16.24;52.57
56894;BME280;43392;50.078;13.704;2023-05-02T11:28:50;97336.97;;;16.58;52.50
56894;BME280;43392;50.078;13.704;2023-05-02T11:31:52;97338.38;;;16.92;53.38
56894;BME280;43392;50.078;13.704;2023-05-02T11:34:20;97332.00;;;17.10;52.79
56894;BME280;43392;50.078;13.704;2023-05-02T11:36:46;97334.50;;;17.06;51.95
56894;BME280;43392;50.078;13.704;2023-05-02T11:39:18;97335.34;;;17.38;51.17
56894;BME280;43392;50.078;13.704;2023-05-02T11:41:45;97327.22;;;17.38;50.49
56894;BME280;43392;50.078;13.704;2023-05-02T11:44:12;97339.03;;;17.64;50.55
56894;BME280;43392;50.078;13.704;2023-05-02T11:46:39;97341.28;;;17.62;49.93
56894;BME280;43392;50.078;13.704;2023-05-02T11:49:06;97335.69;;;17.36;50.57
56894;BME280;43392;50.078;13.704;2023-05-02T11:51:35;97336.97;;;17.16;50.79
56894;BME280;43392;50.078;13.704;2023-05-02T11:54:02;97332.91;;;17.05;51.83
56894;BME280;43392;50.078;13.704;2023-05-02T11:56:29;97342.28;;;17.21;52.15
56894;BME280;43392;50.078;13.704;2023-05-02T11:58:59;97337.66;;;17.00;51.27
56894;BME280;43392;50.078;13.704;2023-05-02T12:01:26;97353.00;;;16.69;52.07
56894;BME280;43392;50.078;13.704;2023-05-02T12:04:01;97349.59;;;16.36;53.78
56894;BME280;43392;50.078;13.704;2023-05-02T12:06:28;97349.59;;;16.36;53.55
56894;BME280;43392;50.078;13.704;2023-05-02T12:09:07;97334.78;;;16.20;52.53
56894;BME280;43392;50.078;13.704;2023-05-02T12:11:34;97348.94;;;16.03;52.77
56894;BME280;43392;50.078;13.704;2023-05-02T12:14:03;97347.31;;;16.02;54.51
56894;BME280;43392;50.078;13.704;2023-05-02T12:16:30;97363.13;;;16.36;54.47
56894;BME280;43392;50.078;13.704;2023-05-02T12:18:57;97361.84;;;16.06;54.70
56894;BME280;43392;50.078;13.704;2023-05-02T12:21:25;97361.47;;;16.13;54.79
56894;BME280;43392;50.078;13.704;2023-05-02T12:23:53;97365.84;;;16.09;55.40
56894;BME280;43392;50.078;13.704;2023-05-02T12:26:22;97359.75;;;16.03;54.93
56894;BME280;43392;50.078;13.704;2023-05-02T12:28:52;97363.03;;;15.86;55.01
56894;BME280;43392;50.078;13.704;2023-05-02T12:31:19;97368.03;;;15.79;54.29
56894;BME280;43392;50.078;13.704;2023-05-02T12:33:46;97370.56;;;16.03;55.34
56894;BME280;43392;50.078;13.704;2023-05-02T12:36:14;97370.47;;;16.22;54.22
56894;BME280;43392;50.078;13.704;2023-05-02T12:38:47;97372.75;;;15.87;53.92
56894;BME280;43392;50.078;13.704;2023-05-02T12:41:14;97381.94;;;15.73;54.00
56894;BME280;43392;50.078;13.704;2023-05-02T12:43:46;97380.06;;;15.87;55.07
56894;BME280;43392;50.078;13.704;2023-05-02T12:46:13;97385.88;;;15.94;55.03
56894;BME280;43392;50.078;13.704;2023-05-02T12:48:40;97389.38;;;15.94;55.29
56894;BME280;43392;50.078;13.704;2023-05-02T12:51:19;97393.31;;;16.02;54.02
56894;BME280;43392;50.078;13.704;2023-05-02T12:53:46;97390.28;;;15.76;54.06
56894;BME280;43392;50.078;13.704;2023-05-02T12:56:13;97397.19;;;15.50;55.27
56894;BME280;43392;50.078;13.704;2023-05-02T12:58:43;97395.16;;;15.42;55.75
56894;BME280;43392;50.078;13.704;2023-05-02T13:01:11;97401.38;;;15.43;56.05
56894;BME280;43392;50.078;13.704;2023-05-02T13:03:38;97403.28;;;15.23;56.65